createdAt,value
2018-04-11T00:00:55.779Z,0.00
2018-04-11T00:01:55.793Z,0.00
2018-04-11T00:02:55.818Z,0.00
2018-04-11T00:03:55.837Z,0.00
2018-04-11T00:04:55.854Z,0.00
2018-04-11T00:05:55.874Z,0.00
2018-04-11T00:06:55.888Z,0.00
2018-04-11T00:07:55.907Z,0.00
2018-04-11T00:08:55.927Z,0.00
2018-04-11T00:09:55.946Z,0.00
2018-04-11T00:10:55.965Z,0.00
2018-04-11T00:11:55.993Z,0.00
2018-04-11T00:12:55.999Z,0.00
2018-04-11T00:13:56.022Z,0.00
2018-04-11T00:14:56.037Z,0.00
2018-04-11T00:15:56.067Z,0.00
2018-04-11T00:16:56.076Z,0.00
2018-04-11T00:17:56.114Z,0.00
2018-04-11T00:18:56.113Z,0.00
2018-04-11T00:19:56.133Z,0.00
2018-04-11T00:20:56.153Z,0.00
2018-04-11T00:21:56.168Z,0.00
2018-04-11T00:22:56.190Z,0.00
2018-04-11T00:23:56.206Z,0.00
2018-04-11T00:24:56.226Z,0.00
2018-04-11T00:25:56.249Z,0.00
2018-04-11T00:26:56.267Z,0.00
2018-04-11T00:27:56.279Z,0.00
2018-04-11T00:28:56.298Z,0.00
2018-04-11T00:29:56.313Z,0.00
2018-04-11T00:30:56.336Z,0.00
2018-04-11T00:31:56.350Z,0.00
2018-04-11T00:32:56.371Z,0.00
2018-04-11T00:33:56.388Z,0.00
2018-04-11T00:34:56.406Z,0.00
2018-04-11T00:35:56.426Z,0.00
2018-04-11T00:36:56.438Z,0.00
2018-04-11T00:37:56.465Z,0.00
2018-04-11T00:38:56.477Z,0.00
2018-04-11T00:39:56.498Z,0.00
2018-04-11T00:40:56.525Z,0.00
2018-04-11T00:41:56.530Z,0.00
2018-04-11T00:42:56.551Z,0.00
2018-04-11T00:43:56.566Z,0.00
2018-04-11T00:44:56.602Z,0.00
2018-04-11T00:45:56.602Z,0.00
2018-04-11T00:46:56.623Z,0.00
2018-04-11T00:47:56.647Z,0.00
2018-04-11T00:48:56.661Z,0.00
2018-04-11T00:49:56.676Z,0.00
2018-04-11T00:50:56.695Z,0.00
2018-04-11T00:51:56.718Z,0.00
2018-04-11T00:52:56.730Z,0.00
2018-04-11T00:53:56.757Z,0.00
2018-04-11T00:54:56.766Z,0.00
2018-04-11T00:55:56.918Z,0.00
2018-04-11T00:56:56.809Z,0.00
2018-04-11T00:57:56.847Z,0.00
2018-04-11T00:58:56.839Z,0.00
2018-04-11T00:59:56.857Z,0.00
2018-04-11T01:00:56.872Z,0.00
2018-04-11T01:01:56.897Z,0.00
2018-04-11T01:02:56.927Z,0.00
2018-04-11T01:03:56.928Z,0.00
2018-04-11T01:04:56.946Z,0.00
2018-04-11T01:05:56.966Z,0.00
2018-04-11T01:06:56.981Z,0.00
2018-04-11T01:07:56.999Z,0.00
2018-04-11T01:08:57.019Z,0.00
2018-04-11T01:09:57.053Z,0.00
2018-04-11T01:10:57.057Z,0.00
2018-04-11T01:11:57.071Z,0.00
2018-04-11T01:12:57.094Z,0.00
2018-04-11T01:13:57.106Z,0.00
2018-04-11T01:14:57.125Z,0.00
2018-04-11T01:15:57.145Z,0.00
2018-04-11T01:16:57.163Z,0.00
2018-04-11T01:17:57.179Z,0.00
2018-04-11T01:18:57.195Z,0.00
2018-04-11T01:19:57.215Z,0.00
2018-04-11T01:20:57.239Z,0.00
2018-04-11T01:21:57.252Z,0.00
2018-04-11T01:22:57.270Z,0.00
2018-04-11T01:23:57.288Z,0.00
2018-04-11T01:24:57.306Z,0.00
2018-04-11T01:25:57.322Z,0.00
2018-04-11T01:26:57.345Z,0.00
2018-04-11T01:27:57.359Z,0.00
2018-04-11T01:28:57.377Z,0.00
2018-04-11T01:29:57.399Z,0.00
2018-04-11T01:30:57.416Z,0.00
2018-04-11T01:31:57.433Z,0.00
2018-04-11T01:32:57.451Z,0.00
2018-04-11T01:33:57.469Z,0.00
2018-04-11T01:34:57.490Z,0.00
2018-04-11T01:35:57.506Z,0.00
2018-04-11T01:36:57.522Z,0.00
2018-04-11T01:37:57.539Z,0.00
2018-04-11T01:38:57.558Z,0.00
2018-04-11T01:39:57.584Z,0.00
2018-04-11T01:40:57.594Z,0.00
2018-04-11T01:41:57.612Z,0.00
2018-04-11T01:42:57.632Z,0.00
2018-04-11T01:43:57.649Z,0.00
2018-04-11T01:44:57.668Z,0.00
2018-04-11T01:45:57.694Z,0.00
2018-04-11T01:46:57.707Z,0.00
2018-04-11T01:47:57.769Z,0.00
2018-04-11T01:48:57.739Z,0.00
2018-04-11T01:49:57.757Z,0.00
2018-04-11T01:50:57.773Z,0.00
2018-04-11T01:51:57.795Z,0.00
2018-04-11T01:52:57.814Z,0.00
2018-04-11T01:53:57.829Z,0.00
2018-04-11T01:54:57.848Z,0.00
2018-04-11T01:55:57.868Z,0.00
2018-04-11T01:56:57.884Z,0.00
2018-04-11T01:57:57.905Z,0.00
2018-04-11T01:58:57.919Z,0.00
2018-04-11T01:59:57.939Z,0.00
2018-04-11T02:00:57.956Z,0.00
2018-04-11T02:01:57.979Z,0.00
2018-04-11T02:02:57.996Z,0.00
2018-04-11T02:03:58.013Z,0.00
2018-04-11T02:04:58.032Z,0.00
2018-04-11T02:05:58.049Z,0.00
2018-04-11T02:06:58.070Z,0.00
2018-04-11T02:07:58.081Z,0.00
2018-04-11T02:08:58.101Z,0.00
2018-04-11T02:09:58.119Z,0.00
2018-04-11T02:10:58.141Z,0.00
2018-04-11T02:11:58.161Z,0.00
2018-04-11T02:12:58.172Z,0.00
2018-04-11T02:13:58.190Z,0.00
2018-04-11T02:14:58.206Z,0.00
2018-04-11T02:15:58.226Z,0.00
2018-04-11T02:16:58.245Z,0.00
2018-04-11T02:17:58.261Z,0.00
2018-04-11T02:18:58.277Z,0.00
2018-04-11T02:19:58.300Z,0.00
2018-04-11T02:20:58.317Z,0.00
2018-04-11T02:21:58.336Z,0.00
2018-04-11T02:22:58.353Z,0.00
2018-04-11T02:23:58.369Z,0.00
2018-04-11T02:24:58.387Z,0.00
2018-04-11T02:25:58.407Z,0.00
2018-04-11T02:26:58.423Z,0.00
2018-04-11T02:27:58.439Z,0.00
2018-04-11T02:28:58.458Z,0.00
2018-04-11T02:29:58.477Z,0.00
2018-04-11T02:30:58.494Z,0.00
2018-04-11T02:31:58.528Z,0.00
2018-04-11T02:32:58.534Z,0.00
2018-04-11T02:33:58.550Z,0.00
2018-04-11T02:34:58.567Z,0.00
2018-04-11T02:35:58.583Z,0.00
2018-04-11T02:36:58.606Z,0.00
2018-04-11T02:37:58.618Z,0.00
2018-04-11T02:38:58.637Z,0.00
2018-04-11T02:39:58.653Z,0.00
2018-04-11T02:40:58.675Z,0.00
2018-04-11T02:41:58.692Z,0.00
2018-04-11T02:42:58.707Z,0.00
2018-04-11T02:43:58.725Z,0.00
2018-04-11T02:44:58.743Z,0.00
2018-04-11T02:45:58.759Z,0.00
2018-04-11T02:46:58.778Z,0.00
2018-04-11T02:47:58.794Z,0.00
2018-04-11T02:48:58.813Z,0.00
2018-04-11T02:49:58.831Z,0.00
2018-04-11T02:50:58.850Z,0.00
2018-04-11T02:51:58.866Z,0.00
2018-04-11T02:52:58.884Z,0.00
2018-04-11T02:53:58.904Z,0.00
2018-04-11T02:54:58.919Z,0.00
2018-04-11T02:55:58.936Z,0.00
2018-04-11T02:56:58.956Z,0.00
2018-04-11T02:57:58.970Z,0.00
2018-04-11T02:58:58.991Z,0.00
2018-04-11T02:59:59.011Z,0.00
2018-04-11T03:00:59.024Z,0.00
2018-04-11T03:01:59.040Z,0.00
2018-04-11T03:02:59.060Z,0.00
2018-04-11T03:03:59.078Z,0.00
2018-04-11T03:04:59.093Z,0.00
2018-04-11T03:05:59.112Z,0.00
2018-04-11T03:06:59.128Z,0.00
2018-04-11T03:07:59.155Z,0.00
2018-04-11T03:08:59.163Z,0.00
2018-04-11T03:09:59.183Z,0.00
2018-04-11T03:10:59.201Z,0.00
2018-04-11T03:11:59.214Z,0.00
2018-04-11T03:12:59.242Z,0.00
2018-04-11T03:13:59.252Z,0.00
2018-04-11T03:14:59.269Z,0.00
2018-04-11T03:15:59.287Z,0.00
2018-04-11T03:16:59.304Z,0.00
2018-04-11T03:17:59.330Z,0.00
2018-04-11T03:18:59.343Z,0.00
2018-04-11T03:19:59.359Z,0.00
2018-04-11T03:20:59.377Z,0.00
2018-04-11T03:21:59.405Z,0.00
2018-04-11T03:22:59.412Z,0.00
2018-04-11T03:23:59.423Z,0.00
2018-04-11T03:24:59.449Z,0.00
2018-04-11T03:25:59.460Z,0.00
2018-04-11T03:26:59.482Z,0.00
2018-04-11T03:27:59.498Z,0.00
2018-04-11T03:28:59.515Z,0.00
2018-04-11T03:29:59.527Z,0.00
2018-04-11T03:30:59.546Z,0.00
2018-04-11T03:31:59.563Z,0.00
2018-04-11T03:32:59.583Z,0.00
2018-04-11T03:33:59.603Z,0.00
2018-04-11T03:34:59.616Z,0.00
2018-04-11T03:35:59.633Z,0.00
2018-04-11T03:36:59.655Z,0.00
2018-04-11T03:37:59.666Z,0.00
2018-04-11T03:38:59.686Z,0.00
2018-04-11T03:39:59.701Z,0.00
2018-04-11T03:40:59.724Z,0.00
2018-04-11T03:41:59.739Z,0.00
2018-04-11T03:42:59.753Z,0.00
2018-04-11T03:43:59.772Z,0.00
2018-04-11T03:44:59.789Z,0.00
2018-04-11T03:45:59.807Z,0.00
2018-04-11T03:46:59.827Z,0.00
2018-04-11T03:47:59.841Z,0.00
2018-04-11T03:48:59.858Z,0.00
2018-04-11T03:49:59.876Z,0.00
2018-04-11T03:50:59.894Z,0.00
2018-04-11T03:51:59.913Z,0.00
2018-04-11T03:52:59.944Z,0.00
2018-04-11T03:53:59.947Z,4.00
2018-04-11T03:54:59.965Z,4.00
2018-04-11T03:55:59.977Z,4.00
2018-04-11T03:56:59.998Z,4.00
2018-04-11T03:58:00.011Z,0.00
2018-04-11T03:59:00.031Z,0.00
2018-04-11T04:00:00.063Z,4.00
2018-04-11T04:01:00.069Z,4.00
2018-04-11T04:02:00.092Z,4.00
2018-04-11T04:03:00.100Z,4.00
2018-04-11T04:04:00.116Z,4.00
2018-04-11T04:05:00.133Z,8.00
2018-04-11T04:06:00.148Z,8.00
2018-04-11T04:07:00.175Z,8.00
2018-04-11T04:08:00.187Z,8.00
2018-04-11T04:09:00.202Z,8.00
2018-04-11T04:10:00.218Z,12.00
2018-04-11T04:11:00.236Z,16.00
2018-04-11T04:12:00.256Z,20.00
2018-04-11T04:13:00.272Z,20.00
2018-04-11T04:14:00.288Z,28.00
2018-04-11T04:15:00.304Z,28.00
2018-04-11T04:16:00.322Z,32.00
2018-04-11T04:17:00.338Z,36.00
2018-04-11T04:18:00.362Z,44.00
2018-04-11T04:19:00.374Z,48.00
2018-04-11T04:20:00.389Z,56.00
2018-04-11T04:21:00.409Z,68.00
2018-04-11T04:22:00.424Z,76.00
2018-04-11T04:23:00.443Z,88.00
2018-04-11T04:24:00.456Z,96.00
2018-04-11T04:25:00.474Z,112.00
2018-04-11T04:26:00.493Z,124.00
2018-04-11T04:27:00.538Z,136.00
2018-04-11T04:28:00.525Z,152.00
2018-04-11T04:29:00.548Z,172.00
2018-04-11T04:30:00.562Z,192.00
2018-04-11T04:31:00.578Z,212.00
2018-04-11T04:32:00.598Z,236.00
2018-04-11T04:33:00.610Z,260.00
2018-04-11T04:34:00.629Z,284.00
2018-04-11T04:35:00.644Z,308.00
2018-04-11T04:36:00.661Z,336.00
2018-04-11T04:37:00.681Z,360.00
2018-04-11T04:38:00.693Z,388.00
2018-04-11T04:39:00.712Z,416.00
2018-04-11T04:40:00.731Z,444.00
2018-04-11T04:41:00.749Z,472.00
2018-04-11T04:42:00.765Z,508.00
2018-04-11T04:43:00.782Z,540.00
2018-04-11T04:44:00.799Z,580.00
2018-04-11T04:45:00.837Z,612.00
2018-04-11T04:46:00.843Z,652.00
2018-04-11T04:47:00.863Z,692.00
2018-04-11T04:48:00.865Z,732.00
2018-04-11T04:49:00.893Z,768.00
2018-04-11T04:50:00.902Z,808.00
2018-04-11T04:51:00.920Z,844.00
2018-04-11T04:52:00.940Z,884.00
2018-04-11T04:53:00.964Z,916.00
2018-04-11T04:54:00.967Z,948.00
2018-04-11T04:55:00.985Z,984.00
2018-04-11T04:56:01.016Z,1012.00
2018-04-11T04:57:01.078Z,1044.00
2018-04-11T04:58:01.036Z,1080.00
2018-04-11T04:59:01.058Z,1120.00
2018-04-11T05:00:01.070Z,1168.00
2018-04-11T05:01:01.091Z,1224.00
2018-04-11T05:02:01.109Z,1280.00
2018-04-11T05:03:01.119Z,1332.00
2018-04-11T05:04:01.157Z,1384.00
2018-04-11T05:05:01.155Z,1444.00
2018-04-11T05:06:01.169Z,1512.00
2018-04-11T05:07:01.188Z,1576.00
2018-04-11T05:08:01.204Z,1636.00
2018-04-11T05:09:01.225Z,1688.00
2018-04-11T05:10:01.238Z,1728.00
2018-04-11T05:11:01.256Z,1744.00
2018-04-11T05:12:01.274Z,1776.00
2018-04-11T05:13:01.289Z,1808.00
2018-04-11T05:14:01.306Z,1836.00
2018-04-11T05:15:01.324Z,1864.00
2018-04-11T05:16:01.340Z,1900.00
2018-04-11T05:17:01.357Z,1944.00
2018-04-11T05:18:01.372Z,1996.00
2018-04-11T05:19:01.394Z,2064.00
2018-04-11T05:20:01.408Z,2164.00
2018-04-11T05:21:01.423Z,2184.00
2018-04-11T05:22:01.440Z,2148.00
2018-04-11T05:23:01.456Z,2164.00
2018-04-11T05:24:01.472Z,2212.00
2018-04-11T05:25:01.493Z,2272.00
2018-04-11T05:26:01.537Z,2344.00
2018-04-11T05:27:01.525Z,2416.00
2018-04-11T05:28:01.543Z,2460.00
2018-04-11T05:29:01.562Z,2492.00
2018-04-11T05:30:01.579Z,2536.00
2018-04-11T05:31:01.595Z,2588.00
2018-04-11T05:32:01.614Z,2660.00
2018-04-11T05:33:01.637Z,2740.00
2018-04-11T05:34:01.649Z,2840.00
2018-04-11T05:35:01.664Z,2968.00
2018-04-11T05:36:01.680Z,3108.00
2018-04-11T05:37:01.698Z,3240.00
2018-04-11T05:38:01.715Z,3332.00
2018-04-11T05:39:01.731Z,3368.00
2018-04-11T05:40:01.762Z,3380.00
2018-04-11T05:41:01.767Z,3388.00
2018-04-11T05:42:01.781Z,3440.00
2018-04-11T05:43:01.800Z,3516.00
2018-04-11T05:44:01.819Z,3608.00
2018-04-11T05:45:01.835Z,3728.00
2018-04-11T05:46:01.854Z,3900.00
2018-04-11T05:47:01.875Z,4084.00
2018-04-11T05:48:01.945Z,4264.00
2018-04-11T05:49:01.902Z,4452.00
2018-04-11T05:50:01.926Z,4632.00
2018-04-11T05:51:01.940Z,4744.00
2018-04-11T05:52:01.966Z,4812.00
2018-04-11T05:53:02.008Z,4900.00
2018-04-11T05:54:01.990Z,5000.00
2018-04-11T05:55:02.018Z,5148.00
2018-04-11T05:56:02.030Z,5424.00
2018-04-11T05:57:02.043Z,5784.00
2018-04-11T05:58:02.063Z,6184.00
2018-04-11T05:59:02.095Z,7204.00
2018-04-11T06:00:02.100Z,8668.00
2018-04-11T06:01:02.113Z,9852.00
2018-04-11T06:02:02.130Z,12428.00
2018-04-11T06:03:02.148Z,14944.00
2018-04-11T06:04:02.165Z,16096.00
2018-04-11T06:05:02.187Z,16960.00
2018-04-11T06:06:02.210Z,19008.00
2018-04-11T06:07:02.223Z,22176.00
2018-04-11T06:08:02.240Z,25984.00
2018-04-11T06:09:02.259Z,27936.00
2018-04-11T06:10:02.277Z,28992.00
2018-04-11T06:11:02.295Z,26880.00
2018-04-11T06:12:02.314Z,20320.00
2018-04-11T06:13:02.335Z,17664.00
2018-04-11T06:14:02.350Z,15940.00
2018-04-11T06:15:02.373Z,14772.00
2018-04-11T06:16:02.389Z,14488.00
2018-04-11T06:17:02.463Z,14300.00
2018-04-11T06:18:02.427Z,14288.00
2018-04-11T06:19:02.445Z,13864.00
2018-04-11T06:20:02.478Z,14024.00
2018-04-11T06:21:02.484Z,14180.00
2018-04-11T06:22:02.507Z,14240.00
2018-04-11T06:23:02.535Z,14344.00
2018-04-11T06:24:02.550Z,14008.00
2018-04-11T06:25:02.564Z,13196.00
2018-04-11T06:26:02.585Z,12748.00
2018-04-11T06:27:02.597Z,12640.00
2018-04-11T06:28:02.672Z,12244.00
2018-04-11T06:29:02.637Z,11920.00
2018-04-11T06:30:02.654Z,11632.00
2018-04-11T06:31:02.673Z,11412.00
2018-04-11T06:32:02.692Z,11144.00
2018-04-11T06:33:02.708Z,11200.00
2018-04-11T06:34:02.727Z,11332.00
2018-04-11T06:35:02.757Z,11284.00
2018-04-11T06:36:02.767Z,11096.00
2018-04-11T06:37:02.790Z,10844.00
2018-04-11T06:38:02.806Z,10836.00
2018-04-11T06:39:02.824Z,10924.00
2018-04-11T06:40:02.841Z,10828.00
2018-04-11T06:41:02.859Z,10256.00
2018-04-11T06:42:02.926Z,9704.00
2018-04-11T06:43:02.895Z,9296.00
2018-04-11T06:44:02.917Z,8976.00
2018-04-11T06:45:02.934Z,8852.00
2018-04-11T06:46:02.953Z,8880.00
2018-04-11T06:47:02.971Z,8948.00
2018-04-11T06:48:03.001Z,9064.00
2018-04-11T06:49:03.027Z,9196.00
2018-04-11T06:50:03.030Z,9464.00
2018-04-11T06:51:03.047Z,9760.00
2018-04-11T06:52:03.064Z,9940.00
2018-04-11T06:53:03.081Z,10100.00
2018-04-11T06:54:03.097Z,10396.00
2018-04-11T06:55:03.118Z,10992.00
2018-04-11T06:56:03.137Z,11660.00
2018-04-11T06:57:03.155Z,12184.00
2018-04-11T06:58:03.172Z,13040.00
2018-04-11T06:59:03.195Z,14224.00
2018-04-11T07:00:03.211Z,15824.00
2018-04-11T07:01:03.263Z,17152.00
2018-04-11T07:02:03.248Z,18336.00
2018-04-11T07:03:03.264Z,19488.00
2018-04-11T07:04:03.287Z,20672.00
2018-04-11T07:05:03.306Z,21728.00
2018-04-11T07:06:03.320Z,25056.00
2018-04-11T07:07:03.340Z,28832.00
2018-04-11T07:08:03.361Z,30784.00
2018-04-11T07:09:03.383Z,32960.00
2018-04-11T07:10:03.403Z,34688.00
2018-04-11T07:11:03.417Z,37312.00
2018-04-11T07:12:03.439Z,38880.00
2018-04-11T07:13:03.458Z,39808.00
2018-04-11T07:14:03.523Z,41088.00
2018-04-11T07:15:03.497Z,45184.00
2018-04-11T07:16:03.522Z,50976.00
2018-04-11T07:17:03.538Z,54176.00
2018-04-11T07:18:03.558Z,56224.00
2018-04-11T07:19:03.589Z,59072.00
2018-04-11T07:20:03.597Z,59104.00
2018-04-11T07:21:03.623Z,58752.00
2018-04-11T07:22:03.641Z,58112.00
2018-04-11T07:23:03.667Z,56480.00
2018-04-11T07:24:03.684Z,56384.00
2018-04-11T07:25:03.706Z,55616.00
2018-04-11T07:26:03.733Z,56448.00
2018-04-11T07:27:03.752Z,56384.00
2018-04-11T07:28:03.776Z,55072.00
2018-04-11T07:29:03.798Z,55840.00
2018-04-11T07:30:03.821Z,55648.00
2018-04-11T07:31:03.844Z,54080.00
2018-04-11T07:32:03.867Z,55360.00
2018-04-11T07:33:03.891Z,53568.00
2018-04-11T07:34:03.914Z,53824.00
2018-04-11T07:35:03.942Z,54368.00
2018-04-11T07:36:03.959Z,52896.00
2018-04-11T07:37:03.986Z,52544.00
2018-04-11T07:38:04.007Z,52416.00
2018-04-11T07:39:04.030Z,53184.00
2018-04-11T07:40:04.083Z,55488.00
2018-04-11T07:41:04.083Z,53184.00
2018-04-11T07:42:04.105Z,42272.00
2018-04-11T07:43:04.135Z,52032.00
2018-04-11T07:44:04.154Z,52224.00
2018-04-11T07:45:04.179Z,56704.00
2018-04-11T07:46:04.244Z,58560.00
2018-04-11T07:47:04.225Z,35680.00
2018-04-11T07:48:04.249Z,32512.00
2018-04-11T07:49:04.272Z,44384.00
2018-04-11T07:50:04.296Z,47104.00
2018-04-11T07:51:04.327Z,58272.00
2018-04-11T07:52:04.345Z,54496.00
2018-04-11T07:53:04.370Z,51232.00
2018-04-11T07:54:04.393Z,48992.00
2018-04-11T07:55:04.421Z,47360.00
2018-04-11T07:56:04.443Z,47008.00
2018-04-11T07:57:04.466Z,48800.00
2018-04-11T07:58:04.488Z,51520.00
2018-04-11T07:59:04.512Z,52928.00
2018-04-11T08:00:04.539Z,52448.00
2018-04-11T08:01:04.563Z,53120.00
2018-04-11T08:02:04.586Z,52928.00
2018-04-11T08:03:04.660Z,52896.00
2018-04-11T08:04:04.637Z,55328.00
2018-04-11T08:05:04.661Z,54272.00
2018-04-11T08:06:04.687Z,53920.00
2018-04-11T08:07:04.712Z,54112.00
2018-04-11T08:08:04.733Z,55968.00
2018-04-11T08:09:04.763Z,57024.00
2018-04-11T08:10:04.817Z,55712.00
2018-04-11T08:11:04.808Z,55264.00
2018-04-11T08:12:04.831Z,56928.00
2018-04-11T08:13:04.857Z,54240.00
2018-04-11T08:14:04.885Z,54048.00
2018-04-11T08:15:04.906Z,53664.00
2018-04-11T08:16:04.930Z,51872.00
2018-04-11T08:17:04.959Z,51840.00
2018-04-11T08:18:04.979Z,54176.00
2018-04-11T08:19:05.006Z,53472.00
2018-04-11T08:20:05.029Z,51648.00
2018-04-11T08:21:05.054Z,49184.00
2018-04-11T08:22:05.080Z,49760.00
2018-04-11T08:23:05.103Z,47264.00
2018-04-11T08:24:05.129Z,47296.00
2018-04-11T08:25:05.154Z,49376.00
2018-04-11T08:26:05.178Z,49344.00
2018-04-11T08:27:05.201Z,49856.00
2018-04-11T08:28:05.224Z,52512.00
2018-04-11T08:29:05.250Z,53856.00
2018-04-11T08:30:05.274Z,47616.00
2018-04-11T08:31:05.296Z,25088.00
2018-04-11T08:32:05.323Z,15084.00
2018-04-11T08:33:05.346Z,14832.00
2018-04-11T08:34:05.373Z,14808.00
2018-04-11T08:35:05.391Z,14884.00
2018-04-11T08:36:05.415Z,15092.00
2018-04-11T08:37:05.441Z,15052.00
2018-04-11T08:38:05.463Z,15284.00
2018-04-11T08:39:05.485Z,15432.00
2018-04-11T08:40:05.504Z,15448.00
2018-04-11T08:41:05.527Z,15148.00
2018-04-11T08:42:05.549Z,15024.00
2018-04-11T08:43:05.573Z,14816.00
2018-04-11T08:44:05.658Z,15568.00
2018-04-11T08:45:05.613Z,15808.00
2018-04-11T08:46:05.634Z,15824.00
2018-04-11T08:47:05.655Z,16116.00
2018-04-11T08:48:05.685Z,16256.00
2018-04-11T08:49:05.698Z,16488.00
2018-04-11T08:50:05.720Z,16684.00
2018-04-11T08:51:05.740Z,16728.00
2018-04-11T08:52:05.769Z,16520.00
2018-04-11T08:53:05.784Z,16236.00
2018-04-11T08:54:05.806Z,15960.00
2018-04-11T08:55:05.827Z,15208.00
2018-04-11T08:56:05.848Z,14520.00
2018-04-11T08:57:05.883Z,14032.00
2018-04-11T08:58:05.890Z,12972.00
2018-04-11T08:59:05.913Z,12900.00
2018-04-11T09:00:05.933Z,11944.00
2018-04-11T09:01:05.951Z,11252.00
2018-04-11T09:02:05.972Z,10784.00
2018-04-11T09:03:05.997Z,10356.00
2018-04-11T09:04:06.024Z,10604.00
2018-04-11T09:05:06.040Z,10892.00
2018-04-11T09:06:06.065Z,10992.00
2018-04-11T09:07:06.079Z,11504.00
2018-04-11T09:08:06.100Z,11960.00
2018-04-11T09:09:06.122Z,12128.00
2018-04-11T09:10:06.144Z,12292.00
2018-04-11T09:11:06.161Z,12224.00
2018-04-11T09:12:06.190Z,12108.00
2018-04-11T09:13:06.200Z,12340.00
2018-04-11T09:14:06.224Z,12804.00
2018-04-11T09:15:06.248Z,12948.00
2018-04-11T09:16:06.264Z,13052.00
2018-04-11T09:17:06.285Z,13660.00
2018-04-11T09:18:06.302Z,14140.00
2018-04-11T09:19:06.328Z,14416.00
2018-04-11T09:20:06.351Z,14920.00
2018-04-11T09:21:06.368Z,15128.00
2018-04-11T09:22:06.383Z,15368.00
2018-04-11T09:23:06.407Z,15496.00
2018-04-11T09:24:06.426Z,15304.00
2018-04-11T09:25:06.446Z,15396.00
2018-04-11T09:26:06.490Z,15504.00
2018-04-11T09:27:06.496Z,15788.00
2018-04-11T09:28:06.512Z,16500.00
2018-04-11T09:29:06.528Z,17888.00
2018-04-11T09:30:06.547Z,19456.00
2018-04-11T09:31:06.567Z,20128.00
2018-04-11T09:32:06.595Z,20256.00
2018-04-11T09:33:06.660Z,19968.00
2018-04-11T09:34:06.631Z,20384.00
2018-04-11T09:35:06.655Z,21184.00
2018-04-11T09:36:06.671Z,21568.00
2018-04-11T09:37:06.695Z,21760.00
2018-04-11T09:38:06.713Z,22400.00
2018-04-11T09:39:06.737Z,23456.00
2018-04-11T09:40:06.754Z,23744.00
2018-04-11T09:41:06.775Z,23904.00
2018-04-11T09:42:06.801Z,23808.00
2018-04-11T09:43:06.820Z,23680.00
2018-04-11T09:44:06.844Z,21984.00
2018-04-11T09:45:06.870Z,21184.00
2018-04-11T09:46:06.882Z,20320.00
2018-04-11T09:47:06.903Z,19904.00
2018-04-11T09:48:06.927Z,20128.00
2018-04-11T09:49:06.946Z,19008.00
2018-04-11T09:50:06.969Z,18560.00
2018-04-11T09:51:06.994Z,18464.00
2018-04-11T09:52:07.010Z,19104.00
2018-04-11T09:53:07.034Z,19520.00
2018-04-11T09:54:07.055Z,20704.00
2018-04-11T09:55:07.075Z,20192.00
2018-04-11T09:56:07.099Z,19776.00
2018-04-11T09:57:07.122Z,19584.00
2018-04-11T09:58:07.146Z,17792.00
2018-04-11T09:59:07.162Z,17664.00
2018-04-11T10:00:07.182Z,16092.00
2018-04-11T10:01:07.203Z,15696.00
2018-04-11T10:02:07.228Z,15064.00
2018-04-11T10:03:07.253Z,14132.00
2018-04-11T10:04:07.276Z,13288.00
2018-04-11T10:05:07.295Z,13860.00
2018-04-11T10:06:07.316Z,13852.00
2018-04-11T10:07:07.333Z,12872.00
2018-04-11T10:08:07.361Z,13120.00
2018-04-11T10:09:07.378Z,13324.00
2018-04-11T10:10:07.398Z,12380.00
2018-04-11T10:11:07.421Z,12256.00
2018-04-11T10:12:07.444Z,12044.00
2018-04-11T10:13:07.459Z,11988.00
2018-04-11T10:14:07.482Z,12204.00
2018-04-11T10:15:07.503Z,11596.00
2018-04-11T10:16:07.524Z,11504.00
2018-04-11T10:17:07.545Z,12612.00
2018-04-11T10:18:07.566Z,12456.00
2018-04-11T10:19:07.649Z,12592.00
2018-04-11T10:20:07.612Z,12728.00
2018-04-11T10:21:07.631Z,13060.00
2018-04-11T10:22:07.648Z,13460.00
2018-04-11T10:23:07.674Z,14024.00
2018-04-11T10:24:07.690Z,14576.00
2018-04-11T10:25:07.713Z,15200.00
2018-04-11T10:26:07.731Z,15140.00
2018-04-11T10:27:07.753Z,15248.00
2018-04-11T10:28:07.780Z,15620.00
2018-04-11T10:29:07.795Z,16176.00
2018-04-11T10:30:07.813Z,16708.00
2018-04-11T10:31:07.838Z,16228.00
2018-04-11T10:32:07.858Z,17016.00
2018-04-11T10:33:07.883Z,18112.00
2018-04-11T10:34:07.901Z,18112.00
2018-04-11T10:35:07.925Z,16288.00
2018-04-11T10:36:07.940Z,15576.00
2018-04-11T10:37:07.965Z,15400.00
2018-04-11T10:38:07.983Z,14548.00
2018-04-11T10:39:08.007Z,14832.00
2018-04-11T10:40:08.023Z,15380.00
2018-04-11T10:41:08.047Z,14412.00
2018-04-11T10:42:08.068Z,12660.00
2018-04-11T10:43:08.084Z,11840.00
2018-04-11T10:44:08.107Z,12092.00
2018-04-11T10:45:08.131Z,12628.00
2018-04-11T10:46:08.164Z,13292.00
2018-04-11T10:47:08.168Z,13768.00
2018-04-11T10:48:08.196Z,14044.00
2018-04-11T10:49:08.214Z,13664.00
2018-04-11T10:50:08.232Z,13516.00
2018-04-11T10:51:08.265Z,13400.00
2018-04-11T10:52:08.275Z,13272.00
2018-04-11T10:53:08.294Z,13100.00
2018-04-11T10:54:08.315Z,13568.00
2018-04-11T10:55:08.335Z,14292.00
2018-04-11T10:56:08.361Z,14392.00
2018-04-11T10:57:08.375Z,13372.00
2018-04-11T10:58:08.397Z,12780.00
2018-04-11T10:59:08.417Z,13140.00
2018-04-11T11:00:08.442Z,14084.00
2018-04-11T11:01:08.456Z,15288.00
2018-04-11T11:02:08.477Z,15712.00
2018-04-11T11:03:08.500Z,14964.00
2018-04-11T11:04:08.522Z,13480.00
2018-04-11T11:05:08.540Z,13092.00
2018-04-11T11:06:08.560Z,12608.00
2018-04-11T11:07:08.590Z,11772.00
2018-04-11T11:08:08.601Z,11236.00
2018-04-11T11:09:08.624Z,10996.00
2018-04-11T11:10:08.646Z,11156.00
2018-04-11T11:11:08.664Z,11472.00
2018-04-11T11:12:08.686Z,11596.00
2018-04-11T11:13:08.707Z,10972.00
2018-04-11T11:14:08.731Z,10188.00
2018-04-11T11:15:08.746Z,9768.00
2018-04-11T11:16:08.768Z,9540.00
2018-04-11T11:17:08.793Z,9372.00
2018-04-11T11:18:08.811Z,9088.00
2018-04-11T11:19:08.832Z,8716.00
2018-04-11T11:20:08.982Z,8616.00
2018-04-11T11:21:08.872Z,9252.00
2018-04-11T11:22:08.892Z,10712.00
2018-04-11T11:23:08.912Z,11708.00
2018-04-11T11:24:08.933Z,12148.00
2018-04-11T11:25:08.952Z,12292.00
2018-04-11T11:26:08.976Z,12216.00
2018-04-11T11:27:08.996Z,12284.00
2018-04-11T11:28:09.020Z,11836.00
2018-04-11T11:29:09.037Z,11352.00
2018-04-11T11:30:09.057Z,11412.00
2018-04-11T11:31:09.088Z,11748.00
2018-04-11T11:32:09.098Z,11968.00
2018-04-11T11:33:09.124Z,12044.00
2018-04-11T11:34:09.144Z,12096.00
2018-04-11T11:35:09.162Z,12136.00
2018-04-11T11:36:09.183Z,12016.00
2018-04-11T11:37:09.201Z,11676.00
2018-04-11T11:38:09.229Z,11388.00
2018-04-11T11:39:09.243Z,11420.00
2018-04-11T11:40:09.269Z,11884.00
2018-04-11T11:41:09.285Z,11944.00
2018-04-11T11:42:09.306Z,11704.00
2018-04-11T11:43:09.324Z,11648.00
2018-04-11T11:44:09.347Z,12140.00
2018-04-11T11:45:09.384Z,12396.00
2018-04-11T11:46:09.388Z,11772.00
2018-04-11T11:47:09.409Z,10672.00
2018-04-11T11:48:09.430Z,9632.00
2018-04-11T11:49:09.453Z,8592.00
2018-04-11T11:50:09.470Z,7596.00
2018-04-11T11:51:09.493Z,6868.00
2018-04-11T11:52:09.583Z,6204.00
2018-04-11T11:53:09.531Z,5576.00
2018-04-11T11:54:09.560Z,5100.00
2018-04-11T11:55:09.574Z,5028.00
2018-04-11T11:56:09.604Z,5364.00
2018-04-11T11:57:09.614Z,6004.00
2018-04-11T11:58:09.637Z,6928.00
2018-04-11T11:59:09.655Z,6908.00
2018-04-11T12:00:09.678Z,6156.00
2018-04-11T12:01:09.698Z,5500.00
2018-04-11T12:02:09.721Z,4816.00
2018-04-11T12:03:09.737Z,4564.00
2018-04-11T12:04:09.822Z,4656.00
2018-04-11T12:05:09.778Z,4872.00
2018-04-11T12:06:09.799Z,4980.00
2018-04-11T12:07:09.832Z,4640.00
2018-04-11T12:08:09.841Z,3980.00
2018-04-11T12:09:09.871Z,3252.00
2018-04-11T12:10:09.888Z,2716.00
2018-04-11T12:11:09.901Z,2336.00
2018-04-11T12:12:09.924Z,2104.00
2018-04-11T12:13:09.942Z,2032.00
2018-04-11T12:14:09.965Z,2140.00
2018-04-11T12:15:09.983Z,2368.00
2018-04-11T12:16:10.002Z,2588.00
2018-04-11T12:17:10.026Z,2736.00
2018-04-11T12:18:10.044Z,2916.00
2018-04-11T12:19:10.062Z,3112.00
2018-04-11T12:20:10.082Z,3240.00
2018-04-11T12:21:10.104Z,3284.00